createdAt,value
2023-03-12T00:00:27.679Z,100102.66
2023-03-12T00:02:55.913Z,100107.78
2023-03-12T00:05:25.773Z,100113.75
2023-03-12T00:07:53.971Z,100113.72
2023-03-12T00:10:22.148Z,100112.84
2023-03-12T00:12:50.048Z,100112.75
2023-03-12T00:15:17.885Z,100110.13
2023-03-12T00:17:45.980Z,100114.41
2023-03-12T00:20:15.203Z,100121.25
2023-03-12T00:22:43.160Z,100125.53
2023-03-12T00:25:15.223Z,100133.22
2023-03-12T00:27:43.592Z,100138.28
2023-03-12T00:30:13.182Z,100141.75
2023-03-12T00:32:40.888Z,100148.63
2023-03-12T00:35:10.752Z,100152.81
2023-03-12T00:37:39.312Z,100157.13
2023-03-12T00:40:08.435Z,100157.94
2023-03-12T00:42:36.502Z,100175.88
2023-03-12T00:45:04.517Z,100170.63
2023-03-12T00:47:32.687Z,100174.91
2023-03-12T00:50:00.176Z,100166.25
2023-03-12T00:52:28.526Z,100165.28
2023-03-12T00:54:58.928Z,100171.25
2023-03-12T00:57:29.310Z,100181.47
2023-03-12T00:59:57.383Z,100181.44
2023-03-12T01:02:24.920Z,100186.47
2023-03-12T01:04:52.976Z,100181.28
2023-03-12T01:07:20.961Z,100184.66
2023-03-12T01:09:49.123Z,100188.09
2023-03-12T01:12:17.305Z,100194.94
2023-03-12T01:14:45.949Z,100188.84
2023-03-12T01:17:13.945Z,100192.22
2023-03-12T01:19:41.932Z,100193.00
2023-03-12T01:22:10.277Z,100197.34
2023-03-12T01:24:40.737Z,100195.56
2023-03-12T01:27:08.770Z,100195.56
2023-03-12T01:29:36.505Z,100203.25
2023-03-12T01:32:05.054Z,100206.63
2023-03-12T01:34:33.551Z,100211.78
2023-03-12T01:37:01.488Z,100217.81
2023-03-12T01:39:29.456Z,100220.34
2023-03-12T01:41:57.935Z,100224.63
2023-03-12T01:44:26.488Z,100229.91
2023-03-12T01:46:54.630Z,100236.81
2023-03-12T01:49:28.451Z,100230.72
2023-03-12T01:52:06.954Z,100241.91
2023-03-12T01:54:55.555Z,100238.47
2023-03-12T01:57:27.812Z,100246.97
2023-03-12T01:59:59.141Z,100252.97
2023-03-12T02:02:28.840Z,100253.75
2023-03-12T02:05:20.889Z,100258.91
2023-03-12T02:07:49.408Z,100256.25
2023-03-12T02:10:16.676Z,100257.94
2023-03-12T02:12:44.676Z,100258.84
2023-03-12T02:15:12.241Z,100273.41
2023-03-12T02:17:40.885Z,100273.41
2023-03-12T02:20:31.829Z,100277.66
2023-03-12T02:23:10.142Z,100268.97
2023-03-12T02:25:44.993Z,100278.38
2023-03-12T02:28:17.481Z,100276.63
2023-03-12T02:30:49.012Z,100284.41
2023-03-12T02:33:16.906Z,100285.25
2023-03-12T02:35:45.485Z,100293.00
2023-03-12T02:38:37.415Z,100288.66
2023-03-12T02:41:15.286Z,100289.47
2023-03-12T02:43:44.590Z,100286.94
2023-03-12T02:46:14.397Z,100288.63
2023-03-12T02:48:42.624Z,100299.78
2023-03-12T02:51:10.528Z,100310.88
2023-03-12T02:53:38.542Z,100305.56
2023-03-12T02:56:08.410Z,100314.16
2023-03-12T02:58:37.482Z,100318.53
2023-03-12T03:01:05.839Z,100330.56
2023-03-12T03:03:34.168Z,100327.22
2023-03-12T03:06:02.017Z,100338.75
2023-03-12T03:08:29.926Z,100334.09
2023-03-12T03:10:57.565Z,100336.66
2023-03-12T03:13:28.057Z,100347.81
2023-03-12T03:15:58.288Z,100351.22
2023-03-12T03:18:26.280Z,100352.13
2023-03-12T03:20:57.594Z,100362.50
2023-03-12T03:23:25.003Z,100368.69
2023-03-12T03:25:55.779Z,100372.22
2023-03-12T03:28:24.427Z,100378.41
2023-03-12T03:31:18.313Z,100387.88
2023-03-12T03:33:46.348Z,100393.09
2023-03-12T03:36:17.185Z,100390.56
2023-03-12T03:38:49.206Z,100391.50
2023-03-12T03:41:43.802Z,100386.34
2023-03-12T03:44:11.609Z,100393.03
2023-03-12T03:49:20.368Z,100396.22
2023-03-12T03:51:47.670Z,100403.00
2023-03-12T03:54:15.858Z,100405.53
2023-03-12T03:56:44.201Z,100413.94
2023-03-12T03:59:11.770Z,100411.22
2023-03-12T04:01:39.780Z,100415.41
2023-03-12T04:04:08.032Z,100429.88
2023-03-12T04:06:35.857Z,100429.00
2023-03-12T04:09:04.198Z,100434.16
2023-03-12T04:11:32.646Z,100441.94
2023-03-12T04:14:00.691Z,100441.03
2023-03-12T04:16:30.866Z,100443.81
2023-03-12T04:18:59.210Z,100456.78
2023-03-12T04:21:27.151Z,100455.97
2023-03-12T04:23:54.632Z,100460.31
2023-03-12T04:26:22.767Z,100461.16
2023-03-12T04:28:50.795Z,100473.13
2023-03-12T04:31:18.606Z,100476.63
2023-03-12T04:33:46.796Z,100477.56
2023-03-12T04:36:16.231Z,100479.25
2023-03-12T04:38:44.693Z,100477.38
2023-03-12T04:41:13.414Z,100484.97
2023-03-12T04:43:42.197Z,100494.22
2023-03-12T04:46:10.595Z,100493.22
2023-03-12T04:48:38.814Z,100499.94
2023-03-12T04:51:07.755Z,100502.41
2023-03-12T04:53:36.042Z,100502.44
2023-03-12T04:56:03.849Z,100510.22
2023-03-12T04:58:31.873Z,100506.69
2023-03-12T05:00:59.431Z,100519.56
2023-03-12T05:03:27.844Z,100516.84
2023-03-12T05:05:55.327Z,100524.47
2023-03-12T05:08:22.899Z,100527.00
2023-03-12T05:10:53.990Z,100531.91
2023-03-12T05:13:22.429Z,100546.72
2023-03-12T05:15:50.893Z,100541.38
2023-03-12T05:18:20.608Z,100549.03
2023-03-12T05:20:48.679Z,100547.19
2023-03-12T05:23:16.607Z,100558.41
2023-03-12T05:25:44.623Z,100561.72
2023-03-12T05:28:12.315Z,100567.66
2023-03-12T05:30:41.172Z,100571.97
2023-03-12T05:33:09.356Z,100576.25
2023-03-12T05:35:37.305Z,100578.88
2023-03-12T05:38:08.103Z,100577.22
2023-03-12T05:40:36.082Z,100579.91
2023-03-12T05:43:03.998Z,100601.28
2023-03-12T05:45:31.620Z,100591.94
2023-03-12T05:47:59.623Z,100604.94
2023-03-12T05:50:27.739Z,100593.75
2023-03-12T05:52:55.926Z,100597.19
2023-03-12T05:55:24.036Z,100593.69
2023-03-12T05:57:52.328Z,100597.69
2023-03-12T06:00:21.824Z,100606.22
2023-03-12T06:02:49.918Z,100609.75
2023-03-12T06:05:20.690Z,100615.06
2023-03-12T06:07:48.606Z,100617.59
2023-03-12T06:10:16.806Z,100625.31
2023-03-12T06:12:44.779Z,100630.53
2023-03-12T06:15:13.056Z,100629.03
2023-03-12T06:17:40.681Z,100642.28
2023-03-12T06:20:12.283Z,100646.91
2023-03-12T06:22:41.754Z,100646.09
2023-03-12T06:25:11.601Z,100658.09
2023-03-12T06:27:39.206Z,100653.81
2023-03-12T06:30:09.637Z,100656.84
2023-03-12T06:32:37.847Z,100665.09
2023-03-12T06:35:07.887Z,100663.13
2023-03-12T06:37:36.045Z,100662.25
2023-03-12T06:40:05.083Z,100672.66
2023-03-12T06:42:33.026Z,100668.41
2023-03-12T06:45:01.209Z,100671.16
2023-03-12T06:47:29.215Z,100670.41
2023-03-12T06:49:57.459Z,100679.06
2023-03-12T06:52:25.744Z,100689.25
2023-03-12T06:54:53.450Z,100688.56
2023-03-12T06:57:21.404Z,100694.00
2023-03-12T06:59:50.613Z,100690.00
2023-03-12T07:02:18.238Z,100692.69
2023-03-12T07:05:10.757Z,100693.91
2023-03-12T07:07:38.976Z,100692.41
2023-03-12T07:10:07.221Z,100695.13
2023-03-12T07:12:35.424Z,100698.22
2023-03-12T07:15:03.094Z,100706.72
2023-03-12T07:17:31.087Z,100707.22
2023-03-12T07:20:01.931Z,100704.25
2023-03-12T07:22:29.951Z,100697.88
2023-03-12T07:24:57.487Z,100691.03
2023-03-12T07:27:25.630Z,100691.25
2023-03-12T07:29:53.338Z,100695.59
2023-03-12T07:32:21.528Z,100713.78
2023-03-12T07:34:49.627Z,100727.66
2023-03-12T07:37:17.236Z,100729.53
2023-03-12T07:39:45.408Z,100735.75
2023-03-12T07:42:13.500Z,100744.47
2023-03-12T07:44:41.662Z,100751.31
2023-03-12T07:47:23.118Z,100750.25
2023-03-12T07:49:51.746Z,100753.00
2023-03-12T07:52:20.270Z,100761.72
2023-03-12T07:54:49.117Z,100761.84
2023-03-12T07:57:17.125Z,100750.31
2023-03-12T07:59:45.090Z,100756.34
2023-03-12T08:02:13.227Z,100761.56
2023-03-12T08:04:41.117Z,100767.72
2023-03-12T08:07:09.519Z,100762.72
2023-03-12T08:09:38.837Z,100768.84
2023-03-12T08:12:07.740Z,100774.28
2023-03-12T08:14:35.528Z,100776.06
2023-03-12T08:17:23.552Z,100776.16
2023-03-12T08:20:12.367Z,100773.91
2023-03-12T08:22:40.801Z,100776.69
2023-03-12T08:25:10.824Z,100779.47
2023-03-12T08:27:40.906Z,100778.69
2023-03-12T08:30:13.744Z,100774.41
2023-03-12T08:32:42.572Z,100780.53
2023-03-12T08:35:11.611Z,100785.78
2023-03-12T08:37:40.112Z,100785.91
2023-03-12T08:40:13.388Z,100784.25
2023-03-12T08:42:42.657Z,100787.00
2023-03-12T08:45:11.904Z,100793.19
2023-03-12T08:47:41.937Z,100801.09
2023-03-12T08:50:12.318Z,100794.31
2023-03-12T08:52:39.884Z,100797.06
2023-03-12T08:55:07.826Z,100807.53
2023-03-12T08:57:36.133Z,100809.44
2023-03-12T09:00:07.329Z,100808.69
2023-03-12T09:02:35.494Z,100820.66
2023-03-12T09:05:03.636Z,100814.47
2023-03-12T09:07:34.730Z,100813.53
2023-03-12T09:10:02.932Z,100822.44
2023-03-12T09:12:31.245Z,100825.28
2023-03-12T09:15:04.557Z,100822.88
2023-03-12T09:17:32.987Z,100832.50
2023-03-12T09:20:01.506Z,100824.13
2023-03-12T09:22:30.593Z,100820.69
2023-03-12T09:24:58.859Z,100830.31
2023-03-12T09:27:26.987Z,100822.66
2023-03-12T09:30:00.582Z,100825.31
2023-03-12T09:32:29.376Z,100826.28
2023-03-12T09:34:57.438Z,100830.69
2023-03-12T09:37:25.508Z,100839.44
2023-03-12T09:39:52.822Z,100843.84
2023-03-12T09:42:47.664Z,100848.06
2023-03-12T09:45:23.608Z,100849.97
2023-03-12T09:47:56.043Z,100849.28
2023-03-12T09:50:26.787Z,100857.22
2023-03-12T09:53:01.248Z,100855.56
2023-03-12T09:55:32.163Z,100866.09
2023-03-12T09:57:59.820Z,100862.00
2023-03-12T10:00:32.679Z,100863.78
2023-03-12T10:03:23.823Z,100861.25
2023-03-12T10:06:11.612Z,100864.72
2023-03-12T10:08:47.687Z,100864.72
2023-03-12T10:11:40.272Z,100868.97
2023-03-12T10:14:32.158Z,100861.88
2023-03-12T10:17:01.845Z,100860.13
2023-03-12T10:19:50.037Z,100860.03
2023-03-12T10:22:40.342Z,100855.88
2023-03-12T10:25:48.876Z,100849.84
2023-03-12T10:29:02.033Z,100844.00
2023-03-12T10:31:35.305Z,100855.41
2023-03-12T10:34:03.677Z,100852.91
2023-03-12T10:36:39.182Z,100854.69
2023-03-12T10:39:37.443Z,100856.50
2023-03-12T10:42:13.167Z,100856.59
2023-03-12T10:44:40.925Z,100851.38
2023-03-12T10:47:12.307Z,100853.94
2023-03-12T10:49:40.456Z,100850.56
2023-03-12T10:52:18.745Z,100861.88
2023-03-12T10:54:48.420Z,100862.75
2023-03-12T10:57:16.273Z,100868.09
2023-03-12T10:59:47.608Z,100875.13
2023-03-12T11:02:35.143Z,100870.28
2023-03-12T11:05:02.797Z,100863.69
2023-03-12T11:07:49.759Z,100867.22
2023-03-12T11:10:27.166Z,100866.81
2023-03-12T11:12:59.269Z,100862.69
2023-03-12T11:15:46.198Z,100864.88
2023-03-12T11:18:24.153Z,100867.81
2023-03-12T11:20:53.186Z,100874.25
2023-03-12T11:23:28.829Z,100878.50
2023-03-12T11:26:06.335Z,100877.94
2023-03-12T11:28:37.962Z,100883.13
2023-03-12T11:31:06.749Z,100878.03
2023-03-12T11:33:34.470Z,100877.00
2023-03-12T11:36:18.050Z,100878.31
2023-03-12T11:39:35.966Z,100873.13
2023-03-12T11:42:27.841Z,100872.03
2023-03-12T11:45:03.211Z,100866.56
2023-03-12T11:47:47.039Z,100863.69
2023-03-12T11:50:20.614Z,100862.25
2023-03-12T11:53:00.865Z,100864.09
2023-03-12T11:55:54.933Z,100870.44
2023-03-12T11:58:53.488Z,100865.41
2023-03-12T12:01:22.964Z,100868.91
2023-03-12T12:04:05.972Z,100869.69
2023-03-12T12:06:36.349Z,100876.59
2023-03-12T12:09:42.530Z,100881.69
2023-03-12T12:12:12.246Z,100872.88
2023-03-12T12:15:16.535Z,100869.94
2023-03-12T12:18:02.180Z,100878.28
2023-03-12T12:20:48.947Z,100869.16
2023-03-12T12:23:21.132Z,100861.97
2023-03-12T12:25:57.839Z,100862.38
2023-03-12T12:28:34.796Z,100848.97
2023-03-12T12:31:07.578Z,100847.19
2023-03-12T12:33:54.066Z,100841.22
2023-03-12T12:36:21.559Z,100851.13
2023-03-12T12:38:56.610Z,100845.28
2023-03-12T12:41:28.037Z,100854.38
2023-03-12T12:44:12.276Z,100850.22
2023-03-12T12:46:43.866Z,100844.28
2023-03-12T12:49:17.395Z,100840.41
2023-03-12T12:51:49.771Z,100834.25
2023-03-12T12:54:45.906Z,100835.25
2023-03-12T12:57:33.391Z,100833.34
2023-03-12T13:00:13.110Z,100834.09
2023-03-12T13:02:42.415Z,100827.72
2023-03-12T13:05:26.125Z,100828.63
2023-03-12T13:07:53.323Z,100839.56
2023-03-12T13:10:35.557Z,100843.19
2023-03-12T13:13:19.738Z,100841.13
2023-03-12T13:15:47.538Z,100844.78
2023-03-12T13:18:22.733Z,100849.81
2023-03-12T13:20:52.591Z,100836.56
2023-03-12T13:23:52.174Z,100837.63
2023-03-12T13:26:26.392Z,100842.72
2023-03-12T13:28:56.824Z,100844.81
2023-03-12T13:31:29.885Z,100850.34
2023-03-12T13:34:01.210Z,100850.19
2023-03-12T13:36:33.700Z,100845.16
2023-03-12T13:39:07.254Z,100853.66
2023-03-12T13:41:40.933Z,100849.09
2023-03-12T13:44:38.115Z,100854.03
2023-03-12T13:47:10.804Z,100852.25
2023-03-12T13:49:58.392Z,100865.47
2023-03-12T13:52:32.342Z,100874.97
2023-03-12T13:55:22.137Z,100867.00
2023-03-12T13:58:00.821Z,100874.44
2023-03-12T14:00:41.634Z,100869.59
2023-03-12T14:03:18.067Z,100865.75
2023-03-12T14:05:52.581Z,100860.66
2023-03-12T14:08:43.460Z,100865.78
2023-03-12T14:11:35.471Z,100863.13
2023-03-12T14:14:27.672Z,100860.34
2023-03-12T14:17:00.513Z,100863.78
2023-03-12T14:19:29.575Z,100860.31
2023-03-12T14:22:01.119Z,100857.13
2023-03-12T14:24:55.309Z,100850.88
2023-03-12T14:27:26.664Z,100858.09
2023-03-12T14:29:56.392Z,100857.69
2023-03-12T14:32:24.870Z,100852.72
2023-03-12T14:34:55.354Z,100853.09
2023-03-12T14:37:43.388Z,100854.56
2023-03-12T14:40:41.118Z,100849.38
2023-03-12T14:43:43.488Z,100849.91
2023-03-12T14:46:23.469Z,100850.19
2023-03-12T14:48:52.884Z,100855.25
2023-03-12T14:51:25.752Z,100847.19
2023-03-12T14:53:53.249Z,100844.97
2023-03-12T14:56:30.610Z,100847.22
2023-03-12T14:58:59.869Z,100859.69
2023-03-12T15:01:34.187Z,100869.88
2023-03-12T15:04:02.793Z,100867.16
2023-03-12T15:06:31.404Z,100868.47
2023-03-12T15:08:59.094Z,100868.22
2023-03-12T15:11:27.819Z,100864.19
2023-03-12T15:13:55.360Z,100860.97
2023-03-12T15:16:22.182Z,100858.50
2023-03-12T15:18:50.318Z,100849.06
2023-03-12T15:21:17.878Z,100854.28
2023-03-12T15:23:46.257Z,100853.38
2023-03-12T15:26:19.483Z,100853.22
2023-03-12T15:28:56.672Z,100849.50
2023-03-12T15:31:24.791Z,100851.47
2023-03-12T15:34:02.653Z,100856.16
2023-03-12T15:36:30.544Z,100852.28
2023-03-12T15:39:05.602Z,100853.25
2023-03-12T15:42:02.921Z,100863.25
2023-03-12T15:44:34.987Z,100865.66
2023-03-12T15:47:12.778Z,100859.56
2023-03-12T15:49:40.785Z,100871.88
2023-03-12T15:52:27.477Z,100868.91
2023-03-12T15:55:10.008Z,100871.94
2023-03-12T15:57:51.670Z,100862.53
2023-03-12T16:00:18.814Z,100874.25
2023-03-12T16:02:53.384Z,100879.34
2023-03-12T16:05:21.732Z,100868.69
2023-03-12T16:07:50.200Z,100880.22
2023-03-12T16:10:38.797Z,100869.94
2023-03-12T16:13:11.100Z,100871.38
2023-03-12T16:15:38.708Z,100871.19
2023-03-12T16:18:06.539Z,100871.38
2023-03-12T16:20:34.797Z,100880.75
2023-03-12T16:23:02.306Z,100884.97
2023-03-12T16:25:30.365Z,100909.13
2023-03-12T16:27:58.881Z,100898.59
2023-03-12T16:30:28.109Z,100895.47
2023-03-12T16:32:56.204Z,100900.25
2023-03-12T16:35:23.360Z,100909.53
2023-03-12T16:37:51.455Z,100907.06
2023-03-12T16:40:32.592Z,100905.31
2023-03-12T16:43:04.701Z,100918.84
2023-03-12T16:45:32.062Z,100930.28
2023-03-12T16:48:07.581Z,100921.84
2023-03-12T16:50:35.499Z,100928.75
2023-03-12T16:53:03.854Z,100937.22
2023-03-12T16:55:31.029Z,100940.06
2023-03-12T16:58:00.110Z,100941.94
2023-03-12T17:00:31.532Z,100939.38
2023-03-12T17:02:59.176Z,100933.31
2023-03-12T17:05:28.018Z,100938.50
2023-03-12T17:08:01.269Z,100950.63
2023-03-12T17:10:29.510Z,100940.06
2023-03-12T17:13:00.574Z,100943.56
2023-03-12T17:15:31.181Z,100952.16
2023-03-12T17:18:03.187Z,100959.66
2023-03-12T17:20:36.400Z,100973.34
2023-03-12T17:23:05.256Z,100969.69
2023-03-12T17:25:34.423Z,100966.13
2023-03-12T17:28:06.065Z,100971.16
2023-03-12T17:30:35.536Z,100975.31
2023-03-12T17:33:26.263Z,100976.19
2023-03-12T17:36:06.875Z,100978.00
2023-03-12T17:38:35.309Z,100981.16
2023-03-12T17:41:03.373Z,100992.09
2023-03-12T17:43:31.901Z,100998.78
2023-03-12T17:45:59.726Z,101005.66
2023-03-12T17:48:28.413Z,101015.47
2023-03-12T17:50:56.778Z,101024.22
2023-03-12T17:53:24.713Z,101042.31
2023-03-12T17:55:52.967Z,101045.63
2023-03-12T17:58:20.927Z,101053.34
2023-03-12T18:01:09.505Z,101055.00
2023-03-12T18:03:37.598Z,101056.69
2023-03-12T18:06:06.698Z,101065.25
2023-03-12T18:08:34.309Z,101071.00
2023-03-12T18:11:02.985Z,101069.13
2023-03-12T18:13:30.777Z,101074.22
2023-03-12T18:16:00.537Z,101083.59
2023-03-12T18:18:27.346Z,101079.06
2023-03-12T18:20:55.439Z,101073.75
2023-03-12T18:23:25.267Z,101064.09
2023-03-12T18:25:52.439Z,101063.91
2023-03-12T18:28:20.926Z,101066.69
2023-03-12T18:30:49.290Z,101073.44
2023-03-12T18:33:16.263Z,101081.94
2023-03-12T18:35:45.094Z,101086.16
2023-03-12T18:38:13.830Z,101089.47
2023-03-12T18:40:41.522Z,101090.84
2023-03-12T18:43:09.759Z,101094.53
2023-03-12T18:45:59.400Z,101097.75
2023-03-12T18:48:27.628Z,101110.31
2023-03-12T18:50:55.390Z,101120.41
2023-03-12T18:53:23.334Z,101124.69
2023-03-12T18:55:55.936Z,101124.81
2023-03-12T18:58:46.688Z,101122.28
2023-03-12T19:01:14.490Z,101130.78
2023-03-12T19:03:42.212Z,101129.44
2023-03-12T19:06:11.252Z,101131.00
2023-03-12T19:08:39.043Z,101144.75
2023-03-12T19:11:08.252Z,101142.84
2023-03-12T19:13:35.216Z,101148.78
2023-03-12T19:16:05.964Z,101154.69
2023-03-12T19:18:34.944Z,101149.44
2023-03-12T19:21:03.037Z,101149.34
2023-03-12T19:23:30.945Z,101151.81
2023-03-12T19:25:58.985Z,101148.16
2023-03-12T19:28:27.263Z,101152.38
2023-03-12T19:31:01.046Z,101155.75
2023-03-12T19:33:28.591Z,101157.34
2023-03-12T19:35:56.302Z,101161.44
2023-03-12T19:38:23.896Z,101163.97
2023-03-12T19:40:55.807Z,101160.31
2023-03-12T19:43:23.441Z,101164.47
2023-03-12T19:45:51.277Z,101170.31
2023-03-12T19:48:19.267Z,101178.88
2023-03-12T19:50:47.345Z,101186.63
2023-03-12T19:53:15.043Z,101184.81
2023-03-12T19:55:43.295Z,101199.38
2023-03-12T19:58:11.574Z,101210.63
2023-03-12T20:00:39.102Z,101220.84
2023-03-12T20:03:07.198Z,101231.13
2023-03-12T20:05:35.281Z,101221.31
2023-03-12T20:08:03.689Z,101230.63
2023-03-12T20:10:32.381Z,101230.50
2023-03-12T20:13:00.377Z,101237.63
2023-03-12T20:15:28.085Z,101233.31
2023-03-12T20:17:58.318Z,101240.25
2023-03-12T20:20:25.889Z,101242.66
2023-03-12T20:22:54.222Z,101243.91
2023-03-12T20:25:22.424Z,101243.66
2023-03-12T20:27:51.701Z,101239.25
2023-03-12T20:30:19.914Z,101227.94
2023-03-12T20:32:47.394Z,101229.59
2023-03-12T20:35:15.427Z,101220.91
2023-03-12T20:37:43.588Z,101223.38
2023-03-12T20:40:14.716Z,101231.00
2023-03-12T20:42:43.427Z,101217.94
2023-03-12T20:45:12.456Z,101216.81
2023-03-12T20:47:40.654Z,101227.97
2023-03-12T20:50:11.058Z,101219.22
2023-03-12T20:52:39.207Z,101225.19
2023-03-12T20:55:07.721Z,101226.84
2023-03-12T20:57:35.300Z,101228.41
2023-03-12T21:00:04.024Z,101223.25
2023-03-12T21:02:31.862Z,101220.66
2023-03-12T21:04:59.961Z,101221.41
2023-03-12T21:07:27.930Z,101228.94
2023-03-12T21:09:55.803Z,101237.34
2023-03-12T21:12:23.320Z,101233.06
2023-03-12T21:14:51.292Z,101238.94
2023-03-12T21:17:19.124Z,101242.25
2023-03-12T21:19:46.857Z,101248.03
2023-03-12T21:22:14.993Z,101254.06
2023-03-12T21:24:42.929Z,101264.19
2023-03-12T21:27:12.948Z,101266.63
2023-03-12T21:29:43.253Z,101270.84
2023-03-12T21:32:11.228Z,101271.44
2023-03-12T21:34:39.358Z,101271.09
2023-03-12T21:37:07.344Z,101266.66
2023-03-12T21:39:35.226Z,101262.34
2023-03-12T21:42:03.409Z,101257.91
2023-03-12T21:44:31.577Z,101274.16
2023-03-12T21:46:59.539Z,101277.69
2023-03-12T21:49:27.710Z,101261.28
2023-03-12T21:51:55.802Z,101270.06
2023-03-12T21:54:24.106Z,101275.31
2023-03-12T21:56:52.224Z,101271.81
2023-03-12T21:59:20.321Z,101279.78
2023-03-12T22:01:48.068Z,101268.47
2023-03-12T22:04:16.196Z,101265.06
2023-03-12T22:06:43.431Z,101268.78
2023-03-12T22:09:13.011Z,101276.47
2023-03-12T22:11:41.151Z,101274.16
2023-03-12T22:14:08.823Z,101274.84
2023-03-12T22:16:40.739Z,101278.22
2023-03-12T22:19:09.258Z,101274.69
2023-03-12T22:21:37.281Z,101263.53
2023-03-12T22:24:07.115Z,101270.38
2023-03-12T22:26:35.327Z,101273.66
2023-03-12T22:29:02.977Z,101278.63
2023-03-12T22:31:31.068Z,101283.78
2023-03-12T22:33:59.064Z,101284.41
2023-03-12T22:36:26.604Z,101282.53
2023-03-12T22:38:54.224Z,101287.44
2023-03-12T22:41:26.504Z,101284.69
2023-03-12T22:43:58.757Z,101286.97
2023-03-12T22:46:27.581Z,101278.06
2023-03-12T22:48:56.299Z,101273.69
2023-03-12T22:51:25.116Z,101279.47
2023-03-12T22:53:52.414Z,101282.88
2023-03-12T22:56:20.657Z,101293.66
2023-03-12T22:58:49.864Z,101284.47
2023-03-12T23:01:25.456Z,101291.09
2023-03-12T23:03:56.541Z,101289.41
2023-03-12T23:06:26.041Z,101291.88
2023-03-12T23:08:55.201Z,101288.13
2023-03-12T23:11:25.454Z,101289.41
2023-03-12T23:13:53.778Z,101287.69
2023-03-12T23:16:23.360Z,101294.81
2023-03-12T23:18:51.058Z,101286.72
2023-03-12T23:21:20.708Z,101280.13
2023-03-12T23:23:48.511Z,101289.00
2023-03-12T23:26:21.601Z,101280.41
2023-03-12T23:28:51.164Z,101284.69
2023-03-12T23:31:23.289Z,101275.09
2023-03-12T23:33:51.052Z,101285.38
2023-03-12T23:36:20.900Z,101285.13
2023-03-12T23:38:48.208Z,101293.59
2023-03-12T23:41:38.447Z,101301.91
2023-03-12T23:44:06.870Z,101303.19
2023-03-12T23:46:34.940Z,101297.00
2023-03-12T23:49:03.137Z,101288.38
2023-03-12T23:51:32.143Z,101286.06
2023-03-12T23:54:01.040Z,101284.47
2023-03-12T23:56:33.647Z,101286.31
2023-03-12T23:59:01.296Z,101279.28
